createdAt,value
2019-02-02T00:00:59.808Z,76.10
2019-02-02T00:03:28.942Z,76.97
2019-02-02T00:05:57.509Z,75.10
2019-02-02T00:08:28.126Z,83.43
2019-02-02T00:10:56.693Z,72.83
2019-02-02T00:13:25.812Z,74.43
2019-02-02T00:15:54.485Z,85.27
2019-02-02T00:18:23.194Z,80.23
2019-02-02T00:20:51.772Z,73.87
2019-02-02T00:23:20.591Z,77.70
2019-02-02T00:25:49.300Z,80.57
2019-02-02T00:28:18.152Z,69.43
2019-02-02T00:30:46.976Z,81.30
2019-02-02T00:33:15.669Z,83.23
2019-02-02T00:35:44.239Z,74.13
2019-02-02T00:38:13.656Z,79.30
2019-02-02T00:40:42.275Z,76.53
2019-02-02T00:43:11.498Z,66.83
2019-02-02T00:45:40.176Z,68.77
2019-02-02T00:48:09.720Z,69.00
2019-02-02T00:50:38.374Z,75.97
2019-02-02T00:53:07.083Z,73.40
2019-02-02T00:55:35.648Z,78.20
2019-02-02T00:58:04.656Z,73.27
2019-02-02T01:00:33.298Z,77.47
2019-02-02T01:03:02.627Z,67.40
2019-02-02T01:05:31.242Z,68.37
2019-02-02T01:08:00.201Z,77.30
2019-02-02T01:10:37.315Z,68.57
2019-02-02T01:13:06.598Z,74.03
2019-02-02T01:15:35.302Z,77.13
2019-02-02T01:18:05.379Z,69.70
2019-02-02T01:20:34.004Z,71.20
2019-02-02T01:23:02.591Z,69.07
2019-02-02T01:25:31.388Z,66.70
2019-02-02T01:28:05.436Z,64.73
2019-02-02T01:30:30.577Z,72.73
2019-02-02T01:32:59.140Z,75.10
2019-02-02T01:35:28.441Z,72.27
2019-02-02T01:37:57.091Z,72.70
2019-02-02T01:40:27.120Z,78.73
2019-02-02T01:42:56.203Z,72.47
2019-02-02T01:45:26.763Z,82.00
2019-02-02T01:47:56.577Z,93.83
2019-02-02T01:50:29.362Z,69.60
2019-02-02T01:52:58.292Z,88.77
2019-02-02T01:55:28.542Z,82.07
2019-02-02T01:57:57.118Z,81.60
2019-02-02T02:00:31.573Z,73.53
2019-02-02T02:03:00.298Z,85.00
2019-02-02T02:05:29.796Z,75.67
2019-02-02T02:07:59.107Z,74.03
2019-02-02T02:10:27.824Z,78.00
2019-02-02T02:12:56.385Z,86.23
2019-02-02T02:15:25.093Z,84.13
2019-02-02T02:17:53.738Z,73.50
2019-02-02T02:20:24.390Z,79.40
2019-02-02T02:22:52.838Z,79.90
2019-02-02T02:25:22.231Z,82.57
2019-02-02T02:27:51.250Z,73.00
2019-02-02T02:30:22.508Z,81.97
2019-02-02T02:32:51.905Z,82.90
2019-02-02T02:35:21.085Z,74.13
2019-02-02T02:37:49.726Z,80.47
2019-02-02T02:40:20.886Z,85.97
2019-02-02T02:42:50.439Z,73.33
2019-02-02T02:45:19.325Z,78.13
2019-02-02T02:47:48.536Z,69.30
2019-02-02T02:50:21.627Z,77.87
2019-02-02T02:52:50.641Z,77.17
2019-02-02T02:55:19.730Z,87.23
2019-02-02T02:57:48.466Z,95.63
2019-02-02T03:00:19.647Z,76.70
2019-02-02T03:02:48.282Z,90.90
2019-02-02T03:05:17.852Z,79.47
2019-02-02T03:07:47.673Z,84.30
2019-02-02T03:10:19.043Z,74.27
2019-02-02T03:12:48.065Z,67.40
2019-02-02T03:15:18.270Z,79.63
2019-02-02T03:17:47.459Z,72.00
2019-02-02T03:20:17.060Z,82.10
2019-02-02T03:22:46.165Z,71.67
2019-02-02T03:25:23.604Z,78.30
2019-02-02T03:27:52.540Z,77.07
2019-02-02T03:30:22.250Z,82.97
2019-02-02T03:32:51.273Z,76.83
2019-02-02T03:35:24.476Z,75.73
2019-02-02T03:37:53.797Z,77.67
2019-02-02T03:40:23.701Z,80.07
2019-02-02T03:42:52.639Z,72.13
2019-02-02T03:45:23.159Z,77.33
2019-02-02T03:47:52.655Z,87.73
2019-02-02T03:50:21.872Z,77.73
2019-02-02T03:52:50.503Z,77.07
2019-02-02T03:55:19.289Z,79.77
2019-02-02T03:57:48.438Z,66.40
2019-02-02T04:00:23.581Z,73.13
2019-02-02T04:02:52.289Z,87.97
2019-02-02T04:05:23.660Z,87.23
2019-02-02T04:07:52.364Z,80.40
2019-02-02T04:10:21.063Z,81.80
2019-02-02T04:12:49.981Z,84.07
2019-02-02T04:15:19.759Z,85.00
2019-02-02T04:17:48.668Z,92.93
2019-02-02T04:20:22.309Z,81.37
2019-02-02T04:22:51.786Z,84.97
2019-02-02T04:25:22.193Z,78.63
2019-02-02T04:27:51.523Z,89.27
2019-02-02T04:30:23.001Z,75.03
2019-02-02T04:32:52.138Z,67.83
2019-02-02T04:35:21.141Z,82.20
2019-02-02T04:37:50.013Z,80.37
2019-02-02T04:40:19.056Z,80.90
2019-02-02T04:42:47.822Z,77.60
2019-02-02T04:45:17.821Z,70.80
2019-02-02T04:47:46.752Z,76.53
2019-02-02T04:50:19.962Z,82.40
2019-02-02T04:52:48.603Z,73.27
2019-02-02T04:55:19.547Z,96.37
2019-02-02T04:57:48.656Z,91.80
2019-02-02T05:00:23.336Z,86.93
2019-02-02T05:02:52.137Z,79.70
2019-02-02T05:05:21.418Z,77.20
2019-02-02T05:07:50.634Z,91.77
2019-02-02T05:10:22.204Z,81.50
2019-02-02T05:12:51.304Z,89.00
2019-02-02T05:15:20.308Z,79.93
2019-02-02T05:17:48.870Z,82.67
2019-02-02T05:20:21.160Z,83.80
2019-02-02T05:22:49.794Z,77.83
2019-02-02T05:25:18.676Z,94.83
2019-02-02T05:27:47.519Z,89.67
2019-02-02T05:30:30.965Z,74.47
2019-02-02T05:32:59.883Z,76.90
2019-02-02T05:35:28.617Z,80.97
2019-02-02T05:37:57.268Z,84.57
2019-02-02T05:40:25.951Z,79.33
2019-02-02T05:42:55.013Z,80.57
2019-02-02T05:45:24.015Z,90.63
2019-02-02T05:47:52.877Z,97.90
2019-02-02T05:50:23.511Z,80.10
2019-02-02T05:52:52.832Z,93.70
2019-02-02T05:55:23.152Z,87.87
2019-02-02T05:57:51.805Z,85.70
2019-02-02T06:00:36.911Z,74.37
2019-02-02T06:03:05.977Z,72.63
2019-02-02T06:05:34.704Z,81.20
2019-02-02T06:08:03.347Z,91.00
2019-02-02T06:10:32.057Z,90.70
2019-02-02T06:13:02.188Z,83.47
2019-02-02T06:15:30.751Z,83.93
2019-02-02T06:17:59.752Z,81.27
2019-02-02T06:20:28.379Z,80.23
2019-02-02T06:22:57.013Z,95.33
2019-02-02T06:25:25.732Z,86.27
2019-02-02T06:27:54.367Z,86.67
2019-02-02T06:30:25.255Z,88.47
2019-02-02T06:32:54.289Z,91.60
2019-02-02T06:35:23.189Z,80.60
2019-02-02T06:37:51.907Z,89.50
2019-02-02T06:40:20.539Z,80.30
2019-02-02T06:42:49.266Z,72.33
2019-02-02T06:45:29.640Z,87.10
2019-02-02T06:47:58.669Z,109.43
2019-02-02T06:50:27.379Z,93.87
2019-02-02T06:52:56.686Z,111.37
2019-02-02T06:55:25.260Z,101.67
2019-02-02T06:57:53.974Z,100.37
2019-02-02T07:00:30.381Z,95.27
2019-02-02T07:02:59.095Z,102.03
2019-02-02T07:05:28.018Z,95.87
2019-02-02T07:07:57.241Z,93.43
2019-02-02T07:10:28.328Z,96.10
2019-02-02T07:12:57.229Z,84.63
2019-02-02T07:15:32.536Z,92.93
2019-02-02T07:18:01.797Z,101.37
2019-02-02T07:20:30.538Z,78.77
2019-02-02T07:22:59.780Z,81.60
2019-02-02T07:25:28.364Z,92.93
2019-02-02T07:27:57.081Z,83.00
2019-02-02T07:30:29.108Z,90.87
2019-02-02T07:32:56.317Z,98.63
2019-02-02T07:35:25.393Z,86.17
2019-02-02T07:37:54.043Z,86.93
2019-02-02T07:40:22.681Z,94.40
2019-02-02T07:42:51.739Z,96.17
2019-02-02T07:45:23.007Z,94.87
2019-02-02T07:47:51.975Z,95.90
2019-02-02T07:50:20.602Z,106.27
2019-02-02T07:52:49.541Z,87.70
2019-02-02T07:55:20.251Z,95.33
2019-02-02T07:57:49.132Z,92.63
2019-02-02T08:00:40.786Z,82.80
2019-02-02T08:03:03.570Z,105.90
2019-02-02T08:05:34.878Z,94.87
2019-02-02T08:08:03.845Z,98.60
2019-02-02T08:10:34.066Z,97.23
2019-02-02T08:13:02.989Z,104.43
2019-02-02T08:15:33.491Z,106.80
2019-02-02T08:18:05.479Z,103.33
2019-02-02T08:20:34.126Z,99.70
2019-02-02T08:23:02.836Z,111.43
2019-02-02T08:25:31.515Z,120.60
2019-02-02T08:28:00.446Z,103.13
2019-02-02T08:30:35.638Z,100.53
2019-02-02T08:33:04.841Z,114.97
2019-02-02T08:35:33.483Z,114.00
2019-02-02T08:38:02.066Z,104.90
2019-02-02T08:40:30.739Z,117.80
2019-02-02T08:42:59.313Z,99.97
2019-02-02T08:45:28.036Z,97.63
2019-02-02T08:47:56.619Z,106.20
2019-02-02T08:50:33.759Z,90.47
2019-02-02T08:53:02.663Z,97.13
2019-02-02T08:55:33.276Z,82.37
2019-02-02T08:58:01.949Z,100.03
2019-02-02T09:00:30.783Z,102.53
2019-02-02T09:02:59.433Z,101.67
2019-02-02T09:05:28.358Z,109.03
2019-02-02T09:07:57.479Z,123.30
2019-02-02T09:10:28.280Z,113.30
2019-02-02T09:12:57.899Z,113.20
2019-02-02T09:15:26.961Z,102.77
2019-02-02T09:17:55.597Z,98.10
2019-02-02T09:20:24.379Z,119.47
2019-02-02T09:23:03.944Z,98.50
2019-02-02T09:25:23.829Z,101.57
2019-02-02T09:27:52.613Z,107.03
2019-02-02T09:30:30.013Z,97.30
2019-02-02T09:32:58.659Z,118.80
2019-02-02T09:35:27.373Z,103.60
2019-02-02T09:37:56.241Z,116.70
2019-02-02T09:40:25.795Z,98.17
2019-02-02T09:42:54.805Z,104.17
2019-02-02T09:45:24.727Z,116.73
2019-02-02T09:47:53.814Z,100.83
2019-02-02T09:50:24.818Z,110.27
2019-02-02T09:52:53.848Z,94.90
2019-02-02T09:55:26.545Z,114.60
2019-02-02T09:57:58.383Z,109.90
2019-02-02T10:00:29.502Z,115.60
2019-02-02T10:02:58.827Z,101.20
2019-02-02T10:05:27.950Z,107.83
2019-02-02T10:07:57.021Z,117.40
2019-02-02T10:10:27.924Z,93.37
2019-02-02T10:12:56.844Z,99.93
2019-02-02T10:15:25.575Z,99.07
2019-02-02T10:17:55.663Z,98.70
2019-02-02T10:20:26.364Z,87.63
2019-02-02T10:22:55.968Z,100.03
2019-02-02T10:25:29.459Z,94.70
2019-02-02T10:27:58.788Z,102.43
2019-02-02T10:30:36.213Z,96.83
2019-02-02T10:33:05.991Z,106.03
2019-02-02T10:35:36.516Z,95.57
2019-02-02T10:38:06.635Z,91.17
2019-02-02T10:40:35.342Z,95.33
2019-02-02T10:43:04.948Z,88.87
2019-02-02T10:45:33.687Z,91.50
2019-02-02T10:48:05.910Z,88.00
2019-02-02T10:50:34.460Z,95.57
2019-02-02T10:53:03.259Z,111.80
2019-02-02T10:55:31.892Z,110.97
2019-02-02T10:58:00.859Z,87.03
2019-02-02T11:00:34.632Z,91.63
2019-02-02T11:03:04.783Z,100.00
2019-02-02T11:05:33.547Z,90.63
2019-02-02T11:08:02.755Z,94.00
2019-02-02T11:10:35.256Z,101.20
2019-02-02T11:13:05.047Z,89.57
2019-02-02T11:15:33.926Z,104.20
2019-02-02T11:18:02.728Z,87.27
2019-02-02T11:20:36.658Z,104.90
2019-02-02T11:23:05.940Z,94.70
2019-02-02T11:25:34.936Z,101.33
2019-02-02T11:28:04.268Z,106.57
2019-02-02T11:30:33.388Z,97.83
2019-02-02T11:33:02.011Z,117.90
2019-02-02T11:35:31.221Z,101.97
2019-02-02T11:37:59.850Z,110.43
2019-02-02T11:40:31.125Z,97.47
2019-02-02T11:42:59.761Z,115.20
2019-02-02T11:45:29.042Z,98.27
2019-02-02T11:47:57.679Z,104.27
2019-02-02T11:50:26.787Z,140.00
2019-02-02T11:52:55.448Z,106.40
2019-02-02T11:55:29.291Z,120.67
2019-02-02T11:57:57.842Z,118.00
2019-02-02T12:00:28.658Z,112.63
2019-02-02T12:02:57.387Z,113.10
2019-02-02T12:05:26.299Z,113.37
2019-02-02T12:07:55.227Z,102.50
2019-02-02T12:10:29.809Z,115.03
2019-02-02T12:12:58.382Z,106.07
2019-02-02T12:15:27.452Z,107.57
2019-02-02T12:17:56.451Z,100.70
2019-02-02T12:20:26.053Z,102.37
2019-02-02T12:22:55.262Z,105.50
2019-02-02T12:25:24.056Z,98.03
2019-02-02T12:27:52.787Z,99.60
2019-02-02T12:30:27.271Z,105.70
2019-02-02T12:32:55.901Z,104.57
2019-02-02T12:35:34.815Z,119.83
2019-02-02T12:38:22.737Z,107.40
2019-02-02T12:40:51.447Z,121.07
2019-02-02T12:43:20.018Z,113.00
2019-02-02T12:45:50.063Z,110.87
2019-02-02T12:48:18.635Z,111.53
2019-02-02T12:50:47.914Z,117.83
2019-02-02T12:53:16.557Z,123.07
2019-02-02T12:55:45.280Z,132.83
2019-02-02T12:58:13.911Z,119.00
2019-02-02T13:00:44.407Z,117.30
2019-02-02T13:03:12.923Z,112.17
2019-02-02T13:05:42.036Z,125.80
2019-02-02T13:08:10.759Z,122.97
2019-02-02T13:10:39.466Z,109.90
2019-02-02T13:13:08.305Z,108.63
2019-02-02T13:15:37.022Z,117.13
2019-02-02T13:18:05.847Z,119.37
2019-02-02T13:20:34.844Z,113.57
2019-02-02T13:23:03.414Z,121.20
2019-02-02T13:25:32.132Z,112.70
2019-02-02T13:28:00.701Z,111.03
2019-02-02T13:30:35.025Z,106.63
2019-02-02T13:33:04.333Z,101.10
2019-02-02T13:35:35.723Z,106.23
2019-02-02T13:38:04.924Z,112.37
2019-02-02T13:40:33.646Z,115.33
2019-02-02T13:43:02.289Z,111.93
2019-02-02T13:45:30.962Z,107.10
2019-02-02T13:47:59.675Z,106.73
2019-02-02T13:50:28.745Z,104.87
2019-02-02T13:52:57.573Z,110.30
2019-02-02T13:55:26.202Z,100.57
2019-02-02T13:57:55.317Z,108.63
2019-02-02T14:00:29.552Z,109.43
2019-02-02T14:03:02.693Z,103.77
2019-02-02T14:05:28.972Z,112.87
2019-02-02T14:08:00.089Z,121.90
2019-02-02T14:10:33.514Z,113.27
2019-02-02T14:13:02.086Z,112.60
2019-02-02T14:15:31.050Z,101.30
2019-02-02T14:18:01.035Z,111.77
2019-02-02T14:20:29.823Z,113.17
2019-02-02T14:22:58.954Z,93.67
2019-02-02T14:25:27.644Z,105.57
2019-02-02T14:27:56.235Z,114.57
2019-02-02T14:30:27.785Z,104.83
2019-02-02T14:32:56.986Z,104.97
2019-02-02T14:35:27.578Z,106.60
2019-02-02T14:37:56.286Z,113.40
2019-02-02T14:40:24.925Z,95.13
2019-02-02T14:42:53.498Z,95.00
2019-02-02T14:45:27.215Z,124.87
2019-02-02T14:47:55.819Z,113.00
2019-02-02T14:50:25.388Z,101.50
2019-02-02T14:52:54.599Z,106.33
2019-02-02T14:55:25.523Z,109.43
2019-02-02T14:57:54.486Z,97.67
2019-02-02T15:00:25.733Z,94.40
2019-02-02T15:02:54.409Z,115.87
2019-02-02T15:05:24.426Z,110.90
2019-02-02T15:07:53.174Z,129.20
2019-02-02T15:10:23.095Z,112.13
2019-02-02T15:12:51.944Z,104.43
2019-02-02T15:15:21.023Z,108.40
2019-02-02T15:17:49.986Z,105.07
2019-02-02T15:20:24.746Z,103.10
2019-02-02T15:22:53.470Z,115.83
2019-02-02T15:25:22.186Z,105.80
2019-02-02T15:27:50.889Z,111.77
2019-02-02T15:30:25.220Z,122.07
2019-02-02T15:32:54.032Z,116.73
2019-02-02T15:35:23.042Z,102.77
2019-02-02T15:37:51.925Z,107.63
2019-02-02T15:40:21.238Z,88.63
2019-02-02T15:42:50.477Z,114.43
2019-02-02T15:45:23.229Z,101.30
2019-02-02T15:47:51.872Z,105.57
2019-02-02T15:50:20.648Z,115.80
2019-02-02T15:52:50.667Z,114.83
2019-02-02T15:55:21.736Z,110.17
2019-02-02T15:57:50.398Z,113.60
2019-02-02T16:00:28.676Z,116.47
2019-02-02T16:02:57.359Z,124.90
2019-02-02T16:05:45.530Z,75.50
2019-02-02T16:08:16.969Z,123.00
2019-02-02T16:10:45.823Z,119.97
2019-02-02T16:13:15.924Z,98.17
2019-02-02T16:15:44.561Z,126.13
2019-02-02T16:18:13.462Z,112.30
2019-02-02T16:20:43.915Z,119.53
2019-02-02T16:23:12.930Z,125.27
2019-02-02T16:25:41.801Z,117.27
2019-02-02T16:28:11.424Z,115.70
2019-02-02T16:30:40.048Z,130.77
2019-02-02T16:33:09.298Z,123.67
2019-02-02T16:35:38.409Z,136.60
2019-02-02T16:38:08.255Z,106.80
2019-02-02T16:40:36.777Z,135.13
2019-02-02T16:43:06.162Z,136.43
2019-02-02T16:45:35.476Z,128.73
2019-02-02T16:48:05.255Z,121.93
2019-02-02T16:50:34.170Z,134.60
2019-02-02T16:53:02.872Z,151.00
2019-02-02T16:55:32.512Z,145.90
2019-02-02T16:58:01.509Z,131.70
2019-02-02T17:00:36.520Z,130.93
2019-02-02T17:03:05.537Z,134.87
2019-02-02T17:05:34.252Z,140.10
2019-02-02T17:08:03.170Z,139.57
2019-02-02T17:10:39.055Z,149.93
2019-02-02T17:13:08.303Z,124.43
2019-02-02T17:15:37.085Z,130.27
2019-02-02T17:18:06.409Z,143.70
2019-02-02T17:20:40.334Z,133.00
2019-02-02T17:23:09.416Z,134.43
2019-02-02T17:25:38.158Z,140.47
2019-02-02T17:28:07.506Z,136.90
2019-02-02T17:30:41.064Z,131.73
2019-02-02T17:33:12.371Z,126.20
2019-02-02T17:35:41.214Z,140.93
2019-02-02T17:38:10.731Z,130.20
2019-02-02T17:40:39.560Z,136.37
2019-02-02T17:43:08.404Z,161.27
2019-02-02T17:45:37.095Z,141.30
2019-02-02T17:48:06.635Z,133.70
2019-02-02T17:50:35.341Z,138.23
2019-02-02T17:53:04.750Z,143.07
2019-02-02T17:55:33.315Z,121.13
2019-02-02T17:58:08.064Z,122.23
2019-02-02T18:00:47.358Z,122.17
2019-02-02T18:03:16.094Z,131.43
2019-02-02T18:05:44.664Z,157.57
2019-02-02T18:08:13.310Z,147.40
2019-02-02T18:10:42.052Z,151.33
2019-02-02T18:13:11.597Z,137.60
2019-02-02T18:15:41.297Z,141.30
2019-02-02T18:18:10.183Z,157.27
2019-02-02T18:20:38.818Z,162.37
2019-02-02T18:23:07.467Z,153.13
2019-02-02T18:25:36.546Z,153.43
2019-02-02T18:28:05.563Z,154.20
2019-02-02T18:30:34.225Z,156.77
2019-02-02T18:33:03.335Z,149.77
2019-02-02T18:35:31.911Z,146.40
2019-02-02T18:38:01.208Z,158.93
2019-02-02T18:40:29.788Z,179.20
2019-02-02T18:42:58.477Z,156.63
2019-02-02T18:45:28.388Z,169.77
2019-02-02T18:47:57.317Z,159.97
2019-02-02T18:50:26.516Z,167.60
2019-02-02T18:52:58.601Z,162.87
2019-02-02T18:55:34.787Z,185.93
2019-02-02T18:58:03.404Z,186.10
2019-02-02T19:00:32.082Z,164.47
2019-02-02T19:03:01.024Z,163.33
2019-02-02T19:05:29.752Z,182.63
2019-02-02T19:07:58.354Z,177.97
2019-02-02T19:10:33.059Z,189.53
2019-02-02T19:13:01.642Z,189.40
2019-02-02T19:15:30.363Z,194.90
2019-02-02T19:17:59.000Z,178.80
2019-02-02T19:20:28.129Z,156.87
2019-02-02T19:22:57.236Z,163.00
2019-02-02T19:25:26.616Z,186.23
2019-02-02T19:27:55.183Z,163.80
2019-02-02T19:30:32.876Z,182.93
2019-02-02T19:33:04.390Z,188.03
2019-02-02T19:35:33.172Z,174.63
2019-02-02T19:38:01.923Z,181.83
2019-02-02T19:40:30.482Z,188.03
2019-02-02T19:42:59.198Z,182.13
2019-02-02T19:45:28.824Z,201.07
2019-02-02T19:47:57.558Z,178.07
2019-02-02T19:50:28.221Z,178.53
2019-02-02T19:52:56.924Z,190.47
2019-02-02T19:55:26.003Z,198.50
2019-02-02T19:57:54.654Z,184.57
2019-02-02T20:00:28.530Z,176.83
2019-02-02T20:02:57.184Z,176.33
2019-02-02T20:05:28.588Z,172.87
2019-02-02T20:07:56.256Z,169.70
2019-02-02T20:10:25.182Z,171.90
2019-02-02T20:12:53.833Z,176.47
2019-02-02T20:15:24.623Z,166.93
2019-02-02T20:17:53.514Z,183.47
2019-02-02T20:20:24.543Z,189.97
2019-02-02T20:22:53.568Z,182.13
2019-02-02T20:25:22.826Z,164.00
2019-02-02T20:27:51.558Z,177.50
2019-02-02T20:30:23.060Z,159.07
2019-02-02T20:32:51.648Z,163.17
2019-02-02T20:35:20.431Z,162.17
2019-02-02T20:37:49.575Z,153.03
2019-02-02T20:40:20.949Z,158.17
2019-02-02T20:42:49.652Z,175.40
2019-02-02T20:45:27.521Z,167.77
2019-02-02T20:47:56.321Z,166.30
2019-02-02T20:50:25.141Z,171.00
2019-02-02T20:52:53.786Z,147.97
2019-02-02T20:55:25.717Z,157.30
2019-02-02T20:57:54.568Z,165.07
2019-02-02T21:00:28.497Z,159.37
2019-02-02T21:02:57.351Z,160.33
2019-02-02T21:05:26.267Z,148.77
2019-02-02T21:07:54.852Z,147.53
2019-02-02T21:10:25.382Z,154.10
2019-02-02T21:12:55.913Z,158.87
2019-02-02T21:15:25.117Z,120.73
2019-02-02T21:17:53.888Z,122.10
2019-02-02T21:20:28.119Z,116.07
2019-02-02T21:22:56.832Z,116.40
2019-02-02T21:25:26.002Z,102.00
2019-02-02T21:27:54.755Z,104.90
2019-02-02T21:30:31.847Z,108.53
2019-02-02T21:33:00.766Z,125.07
2019-02-02T21:35:29.480Z,107.03
2019-02-02T21:37:58.116Z,107.93
2019-02-02T21:40:30.809Z,101.47
2019-02-02T21:42:59.826Z,102.73
2019-02-02T21:45:29.011Z,106.13
2019-02-02T21:47:57.826Z,106.23
2019-02-02T21:50:27.258Z,107.43
2019-02-02T21:52:55.985Z,105.93
2019-02-02T21:55:26.815Z,108.97
2019-02-02T21:57:55.673Z,113.30
2019-02-02T22:00:27.169Z,77.43
2019-02-02T22:02:56.020Z,67.67
2019-02-02T22:05:24.857Z,105.47
2019-02-02T22:07:53.822Z,104.27
2019-02-02T22:10:22.818Z,115.73
2019-02-02T22:12:52.939Z,95.10
2019-02-02T22:15:24.310Z,101.23
2019-02-02T22:17:52.944Z,121.87
2019-02-02T22:20:21.653Z,110.87
2019-02-02T22:22:50.753Z,107.67
2019-02-02T22:25:31.452Z,101.70
2019-02-02T22:28:00.164Z,97.80
2019-02-02T22:30:37.100Z,108.53
2019-02-02T22:33:06.439Z,113.80
2019-02-02T22:35:35.474Z,105.33
2019-02-02T22:38:04.300Z,113.00
2019-02-02T22:40:36.464Z,117.70
2019-02-02T22:43:05.268Z,104.10
2019-02-02T22:45:34.229Z,109.87
2019-02-02T22:48:02.864Z,114.97
2019-02-02T22:50:32.004Z,106.90
2019-02-02T22:53:03.611Z,109.17
2019-02-02T22:55:32.658Z,112.20
2019-02-02T22:58:01.310Z,104.33
2019-02-02T23:00:43.518Z,114.83
2019-02-02T23:03:15.228Z,107.20
2019-02-02T23:05:50.129Z,99.47
2019-02-02T23:08:21.762Z,103.00
2019-02-02T23:11:02.453Z,115.47
2019-02-02T23:13:56.555Z,107.63
2019-02-02T23:16:27.078Z,122.70
2019-02-02T23:18:56.380Z,101.40
2019-02-02T23:21:25.704Z,89.90
2019-02-02T23:23:54.278Z,121.23
2019-02-02T23:26:25.903Z,103.50
2019-02-02T23:28:54.483Z,107.67
2019-02-02T23:31:23.483Z,103.50
2019-02-02T23:33:52.060Z,112.13
2019-02-02T23:36:21.069Z,112.60
2019-02-02T23:38:49.645Z,127.47
2019-02-02T23:41:19.046Z,103.43
2019-02-02T23:43:48.153Z,112.53
2019-02-02T23:46:17.039Z,103.67
2019-02-02T23:48:45.594Z,104.97
2019-02-02T23:51:14.403Z,120.40
2019-02-02T23:53:42.968Z,107.73
2019-02-02T23:56:12.392Z,117.27
2019-02-02T23:58:41.135Z,98.57
